• Join FlightAware (Why Join?)
  • Login
  • US Flag 
02:27AM EST


 

Airport Tracker/Info


-or-


 

Live Flight TrackerFlight Track Log ✈ EJA922 ✈ 26-Jul-2013 ✈ KSJC - KGON

Flight Track Log - Related Links

Times and Time Zones

All times are in EDT time to prevent confusion due to time zone crossing. See the EJA922 flight status page for this flight to view local times or setup timezone preferences in your user account.

Time Position Orientation Groundspeed Altitude Reporting Facility
EDT Latitude Longitude Course Direction KTS MPH feet Rate Location/Type
03:49PM 37.4500 -121.9333 31° Northeast 230 265 4,900  Level Northern Cal TRACON
03:50PM 37.4000 -121.8667 133° Southeast 222 255 5,800 1,380 Climbing Northern Cal TRACON
03:52PM 37.3575 -121.8169 137° Southeast 213 245 8,100 1,920 Climbing Oakland Center
03:53PM 37.3281 -121.8728 236° Southwest 242 278 10,300 2,220 Climbing Oakland Center
03:54PM 37.3856 -121.9453 315° West 263 303 12,700 1,920 Climbing Oakland Center
03:55PM 38.1517 -121.7362 31° Northeast  Level FlightAware Approximate
03:55PM 37.4672 -121.9525 356° North 294 338 14,300  Level Oakland Center
03:56PM 37.5611 -121.9425 North 341 392 15,600 1,080 Climbing Oakland Center
03:57PM 37.6600 -121.8972 20° North 379 436 16,600 1,020 Climbing Oakland Center
03:58PM 37.7656 -121.8508 19° North 400 460 17,800 1,020 Climbing Oakland Center
03:59PM 37.8753 -121.8028 19° North 417 480 18,800 1,140 Climbing Oakland Center
04:00PM 38.0100 -121.7419 20° North 429 494 20,200 1,200 Climbing Oakland Center
04:01PM 38.1253 -121.6922 19° North 439 505 21,400 1,140 Climbing Oakland Center
04:02PM 38.2411 -121.6403 19° North 444 511 22,600 1,140 Climbing Oakland Center
04:03PM 38.3611 -121.5872 19° North 456 525 23,800 1,200 Climbing Oakland Center
04:04PM 38.4697 -121.5081 30° Northeast 469 540 25,100 1,140 Climbing Oakland Center
04:05PM 38.5461 -121.3731 54° Northeast 471 542 26,200 1,080 Climbing Oakland Center
04:06PM 38.6222 -121.2411 54° Northeast 465 535 27,400 1,140 Climbing Oakland Center
04:07PM 38.7086 -121.0950 53° Northeast 471 542 28,600 1,020 Climbing Oakland Center
04:08PM 38.7872 -120.9567 54° Northeast 479 551 29,600 960 Climbing Oakland Center
04:09PM 38.8689 -120.8164 53° Northeast 487 560 30,600 960 Climbing Oakland Center
04:10PM 38.9678 -120.6436 54° Northeast 499 574 31,700 960 Climbing Oakland Center
04:11PM 39.0517 -120.4975 53° Northeast 506 582 32,700 960 Climbing Oakland Center
04:12PM 39.1367 -120.3506 53° Northeast 511 588 33,700 900 Climbing Oakland Center
04:13PM 39.2208 -120.2000 54° Northeast 516 594 34,600 600 Climbing Oakland Center
04:14PM 39.3139 -120.0456 52° Northeast 532 612 35,000 420 Climbing Oakland Center
04:15PM 39.4042 -119.8858 54° Northeast 545 627 35,500 480 Climbing Oakland Center
04:16PM 39.4953 -119.7242 54° Northeast 554 638 36,100 480 Climbing Oakland Center
04:17PM 39.5856 -119.5614 54° Northeast 555 639 36,600 420 Climbing Oakland Center
04:18PM 39.6772 -119.3953 54° Northeast 560 644 37,000 180 Climbing Oakland Center
04:19PM 39.7900 -119.1908 54° Northeast 572 658 37,000  Level Oakland Center
04:20PM 39.8856 -119.0172 54° Northeast 581 669 37,000 180 Level Oakland Center
04:21PM 39.9794 -118.8447 55° Northeast 579 666 37,400 480 Climbing Oakland Center
04:23PM 40.0719 -118.6739 55° Northeast 574 661 38,000 600 Climbing Oakland Center
04:24PM 40.1497 -118.4933 61° Northeast 570 656 38,700 660 Climbing Oakland Center
04:24PM 40.1819 -118.3703 71° East 567 652 39,100 600 Climbing Salt Lake Center
04:25PM 40.2325 -118.1833 70° East 569 655 39,700 600 Climbing Salt Lake Center
04:26PM 40.2914 -117.9675 70° East 565 650 40,400 600 Climbing Salt Lake Center
04:27PM 40.3419 -117.7844 70° East 559 643 41,000 240 Climbing Salt Lake Center
04:28PM 40.3986 -117.5697 71° East 557 641 41,000  Level Salt Lake Center
04:29PM 40.4475 -117.3850 71° East 558 642 41,000  Level Salt Lake Center
04:30PM 40.4978 -117.1986 70° East 560 644 41,000  Level Salt Lake Center
04:31PM 40.5558 -116.9781 71° East 564 649 41,000  Level Salt Lake Center
04:32PM 40.6061 -116.7875 71° East 565 650 41,000  Level Salt Lake Center
04:33PM 40.6650 -116.5694 70° East 561 646 41,000  Level Salt Lake Center
04:35PM 40.7150 -116.3819 71° East 564 649 41,000  Level Salt Lake Center
04:36PM 40.7650 -116.1969 70° East 561 646 41,000  Level Salt Lake Center
04:37PM 40.8225 -115.9786 71° East 564 649 41,000  Level Salt Lake Center
04:38PM 40.8708 -115.7903 71° East 564 649 41,000  Level Salt Lake Center
04:39PM 40.9269 -115.5717 71° East 564 649 41,000  Level Salt Lake Center
04:40PM 40.9769 -115.3836 71° East 565 650 41,000  Level Salt Lake Center
04:41PM 41.0328 -115.1622 71° East 568 654 41,000  Level Salt Lake Center
04:42PM 41.0842 -114.9750 70° East 567 652 41,000  Level Salt Lake Center
04:43PM 41.1331 -114.7683 73° East 567 652 41,000  Level Salt Lake Center
04:44PM 41.1831 -114.5689 72° East 570 656 41,000  Level Salt Lake Center
04:45PM 41.2325 -114.3703 72° East 569 655 41,000  Level Salt Lake Center
04:46PM 41.2908 -114.1300 72° East 570 656 41,000  Level Salt Lake Center
04:47PM 41.3397 -113.9325 72° East 564 649 41,000  Level Salt Lake Center
04:48PM 41.3736 -113.7272 78° East 568 654 41,000  Level Salt Lake Center
04:49PM 41.3839 -113.5206 86° East 564 649 41,000  Level Salt Lake Center
04:50PM 41.3978 -113.3133 85° East 563 648 41,000  Level Salt Lake Center
04:51PM 41.4100 -113.1036 85° East 568 654 41,000  Level Salt Lake Center
04:52PM 41.4225 -112.8936 85° East 569 655 41,000  Level Salt Lake Center
04:53PM 41.4372 -112.6408 85° East 569 655 41,000  Level Salt Lake Center
04:54PM 41.4497 -112.4308 85° East 568 654 41,000  Level Salt Lake Center
04:55PM 41.4614 -112.2178 86° East 572 658 41,000  Level Salt Lake Center
04:56PM 41.4725 -112.0050 86° East 572 658 41,000  Level Salt Lake Center
04:57PM 41.4842 -111.7908 86° East 574 661 41,000  Level Salt Lake Center
04:58PM 41.4947 -111.5769 86° East 574 661 41,000  Level Salt Lake Center
04:59PM 41.5044 -111.3633 86° East 575 662 41,000  Level Salt Lake Center
05:00PM 41.5131 -111.1517 87° East 571 657 41,000  Level Salt Lake Center
05:01PM 41.5239 -110.9161 86° East 570 656 41,000  Level Salt Lake Center
05:02PM 41.5331 -110.6814 87° East 568 654 41,000  Level Salt Lake Center
05:03PM 41.5414 -110.4817 87° East 565 650 41,100 300 Climbing Salt Lake Center
05:04PM 41.5506 -110.2475 87° East 565 650 41,700 480 Climbing Salt Lake Center
05:05PM 41.5578 -110.0536 87° East 551 634 42,200 540 Climbing Salt Lake Center
05:07PM 41.5653 -109.8269 87° East 548 631 42,900 480 Climbing Salt Lake Center
05:08PM 41.5717 -109.6342 87° East 543 625 43,200 180 Climbing Salt Lake Center
05:09PM 41.5786 -109.4422 87° East 541 623 43,300 180 Climbing Salt Lake Center
05:10PM 41.5861 -109.2142 87° East 543 625 43,600 240 Climbing Salt Lake Center
05:11PM 41.5928 -109.0144 87° East 548 631 43,800 120 Climbing Salt Lake Center
05:12PM 41.6061 -108.8203 85° East 543 625 43,900 60 Climbing Salt Lake Center
05:13PM 41.6236 -108.5956 84° East 545 627 44,000  Climbing Salt Lake Center
05:14PM 41.6361 -108.4036 85° East 544 626 44,000  Level Salt Lake Center
05:15PM 41.6531 -108.1792 84° East 544 626 44,000  Level Salt Lake Center
05:16PM 41.6681 -107.9878 84° East 542 624 44,000  Level Salt Lake Center
05:17PM 41.6825 -107.7631 85° East 545 627 44,000  Level Salt Lake Center
05:18PM 41.6950 -107.5708 85° East 544 626 44,100 60 Climbing Salt Lake Center
05:19PM 41.7097 -107.3486 85° East 538 619 44,200 120 Climbing Salt Lake Center
05:20PM 41.7214 -107.1617 85° East 531 611 44,400 180 Climbing Salt Lake Center
05:21PM 41.7344 -106.9442 85° East 527 606 44,600 240 Climbing Salt Lake Center
05:22PM 41.7461 -106.7597 85° East 523 602 44,900 180 Climbing Salt Lake Center
05:23PM 41.7583 -106.5606 85° East 519 597 45,000  Climbing Salt Lake Center
05:24PM 41.7694 -106.3464 86° East 518 596 45,000  Level Salt Lake Center
05:25PM 41.7794 -106.1597 86° East 526 605 45,000  Level Salt Lake Center
05:27PM 41.7928 -105.8811 86° East 524 603 45,000  Level Denver Center
05:28PM 41.8050 -105.6653 86° East 523 602 45,000  Level Denver Center
05:29PM 41.8147 -105.4775 86° East 526 605 45,000  Level Denver Center
05:30PM 41.8242 -105.2608 87° East 524 603 45,000  Level Denver Center
05:31PM 41.8333 -105.0717 86° East 530 610 45,000  Level Denver Center
05:32PM 41.8428 -104.8533 87° East 529 609 45,000  Level Denver Center
05:33PM 41.8497 -104.6667 87° East 526 605 45,000  Level Denver Center
05:34PM 41.8586 -104.4472 87° East 529 609 45,000  Level Denver Center
05:35PM 41.8667 -104.2578 87° East 534 615 45,000  Level Denver Center
05:36PM 41.8731 -104.0389 88° East 531 611 45,000  Level Denver Center
05:37PM 41.8808 -103.8489 87° East 533 613 45,000  Level Denver Center
05:38PM 41.8883 -103.6289 87° East 533 613 45,000  Level Denver Center
05:39PM 41.8989 -103.4408 86° East 531 611 45,000  Level Denver Center
05:40PM 41.9286 -103.2242 79° East 530 610 45,000  Level Denver Center
05:41PM 41.9558 -103.0378 79° East 532 612 45,000  Level Denver Center
05:42PM 41.9858 -102.8181 80° East 537 618 45,000  Level Denver Center
05:43PM 42.0106 -102.6306 80° East 535 616 45,000  Level Denver Center
05:44PM 42.0392 -102.4119 80° East 534 615 45,000  Level Denver Center
05:45PM 42.0669 -102.2069 80° East 536 617 45,000  Level Denver Center
05:46PM 42.0922 -102.0175 80° East 536 617 45,000  Level Denver Center
05:47PM 42.1217 -101.7972 80° East 535 616 45,000  Level Denver Center
05:48PM 42.1447 -101.6086 81° East 531 611 45,000  Level Denver Center
05:49PM 42.1722 -101.3878 80° East 535 616 45,000  Level Denver Center
05:50PM 42.1953 -101.2017 80° East 529 609 45,000  Level Denver Center
05:51PM 42.2203 -100.9828 81° East 528 608 45,000  Level Denver Center
05:52PM 42.2428 -100.7964 81° East 526 605 45,000  Level Denver Center
05:54PM 42.2647 -100.6092 81° East 526 605 45,000  Level Denver Center
05:55PM 42.2894 -100.3892 81° East 529 609 45,000  Level Denver Center
05:55PM 42.3014 -100.2856 81° East 528 608 45,000  Level Minneapolis Center
05:56PM 42.3278 -100.0489 81° East 530 610 45,000  Level Minneapolis Center
05:57PM 42.3497 -99.8503 81° East 532 612 45,000  Level Minneapolis Center
05:58PM 42.3706 -99.6525 82° East 531 611 45,000  Level Minneapolis Center
05:59PM 42.3922 -99.4533 82° East 534 615 45,000  Level Minneapolis Center
06:00PM 42.4139 -99.2539 82° East 535 616 45,000  Level Minneapolis Center
06:01PM 42.4342 -99.0539 82° East 535 616 45,000  Level Minneapolis Center
06:02PM 42.4539 -98.8544 82° East 534 615 45,000  Level Minneapolis Center
06:04PM 42.4756 -98.6125 83° East 536 617 45,000  Level Minneapolis Center
06:05PM 42.4844 -98.4097 87° East 538 619 45,000  Level Minneapolis Center
06:06PM 42.4950 -98.2069 86° East 539 620 45,000  Level Minneapolis Center
06:07PM 42.5031 -98.0044 87° East 537 618 45,000  Level Minneapolis Center
06:08PM 42.5153 -97.7375 86° East 537 618 45,000  Level Minneapolis Center
06:09PM 42.5244 -97.5356 86° East 540 621 45,000  Level Minneapolis Center
06:10PM 42.5328 -97.3322 87° East 540 621 45,000  Level Minneapolis Center
06:11PM 42.5397 -97.1292 87° East 540 621 45,000  Level Minneapolis Center
06:12PM 42.5467 -96.9258 87° East 540 621 45,000  Level Minneapolis Center
06:13PM 42.5542 -96.7192 87° East 545 627 45,000  Level Minneapolis Center
06:14PM 42.5619 -96.4733 87° East 543 625 45,000  Level Minneapolis Center
06:15PM 42.5692 -96.2661 87° East 546 628 45,000  Level Minneapolis Center
06:16PM 42.5753 -96.0639 88° East 538 619 45,000  Level Minneapolis Center
06:17PM 42.5803 -95.8592 88° East 540 621 45,000  Level Minneapolis Center
06:18PM 42.5853 -95.6542 88° East 541 623 45,000  Level Minneapolis Center
06:19PM 42.5903 -95.4456 88° East 550 633 45,000  Level Minneapolis Center
06:20PM 42.5958 -95.2008 88° East 543 625 45,000  Level Minneapolis Center
06:22PM 42.6003 -94.9528 89° East 546 628 45,000  Level Minneapolis Center
06:23PM 42.6039 -94.7475 89° East 544 626 45,000  Level Minneapolis Center
06:24PM 42.6069 -94.5611 89° East 546 628 45,000  Level Minneapolis Center
06:25PM 42.6089 -94.3094 89° East 556 640 45,000  Level Minneapolis Center
06:26PM 42.6017 -94.1033 93° East 554 638 45,000  Level Minneapolis Center
06:27PM 42.5914 -93.8978 94° East 553 636 45,000  Level Minneapolis Center
06:28PM 42.5819 -93.6914 93° East 553 636 45,000  Level Minneapolis Center
06:29PM 42.5725 -93.4844 93° East 553 636 45,000  Level Minneapolis Center
06:30PM 42.5603 -93.2372 94° East 555 639 45,000  Level Minneapolis Center
06:31PM 42.5492 -93.0308 94° East 552 635 45,000  Level Chicago Center
06:32PM 42.5375 -92.8269 94° East 550 633 45,000  Level Chicago Center
06:33PM 42.5239 -92.5850 94° East 544 626 45,000  Level Chicago Center
06:34PM 42.5119 -92.3833 95° East 544 626 45,000  Level Chicago Center
06:35PM 42.5000 -92.1828 95° East 544 626 45,000  Level Chicago Center
06:36PM 42.4881 -91.9825 95° East 543 625 45,000  Level Chicago Center
06:37PM 42.4725 -91.7436 95° East 543 625 45,000  Level Chicago Center
06:38PM 42.4600 -91.5447 95° East 543 625 45,000  Level Chicago Center
06:39PM 42.4461 -91.3450 95° East 544 626 45,000  Level Chicago Center
06:40PM 42.4322 -91.1464 95° East 542 624 45,000  Level Chicago Center
06:41PM 42.4144 -90.9050 96° East 543 625 45,000  Level Chicago Center
06:42PM 42.3989 -90.7025 96° East 548 631 45,000  Level Chicago Center
06:43PM 42.3878 -90.5003 94° East 547 629 45,000  Level Chicago Center
06:44PM 42.3775 -90.2969 94° East 549 632 45,000  Level Chicago Center
06:45PM 42.3658 -90.0931 94° East 550 633 45,000  Level Chicago Center
06:46PM 42.3525 -89.8508 94° East 550 633 45,000  Level Chicago Center
06:47PM 42.3394 -89.6450 95° East 550 633 45,000  Level Chicago Center
06:48PM 42.3261 -89.4392 95° East 551 634 45,000  Level Chicago Center
06:50PM 42.3139 -89.2364 95° East 546 628 45,000  Level Chicago Center
06:51PM 42.2978 -88.9986 95° East 546 628 45,000  Level Chicago Center
06:52PM 42.2847 -88.8133 95° East 548 631 45,000  Level Chicago Center
06:53PM 42.2711 -88.6100 95° East 547 629 45,000  Level Chicago Center
06:54PM 42.2522 -88.3689 96° East 540 621 45,000  Level Chicago Center
06:55PM 42.2375 -88.1683 96° East 538 619 45,000  Level Chicago Center
06:56PM 42.2214 -87.9650 96° East 542 624 45,000  Level Chicago Center
06:57PM 42.2111 -87.7631 94° East 541 623 45,000  Level Chicago Center
06:59PM 42.1892 -87.3625 94° East 538 619 45,000  Level Chicago Center
07:00PM 42.1750 -87.1214 94° East 540 621 45,000  Level Chicago Center
07:01PM 42.1617 -86.9192 95° East 542 624 45,000  Level Chicago Center
07:02PM 42.1511 -86.7206 94° East 538 619 45,000  Level Chicago Center
07:03PM 42.1383 -86.5103 95° East 541 623 45,000  Level Chicago Center
07:04PM 42.1244 -86.3094 95° East 538 619 45,000  Level Chicago Center
07:05PM 42.1111 -86.1106 95° East 536 617 45,000  Level Chicago Center
07:06PM 42.0956 -85.8864 95° East 537 618 45,000  Level Chicago Center
07:07PM 42.0819 -85.6872 95° East 537 618 45,000  Level Chicago Center
07:08PM 42.0669 -85.4869 96° East 541 623 45,000  Level Chicago Center
07:09PM 42.0531 -85.2875 95° East 541 623 45,000  Level Chicago Center
07:10PM 42.0375 -85.0447 95° East 544 626 45,000  Level Chicago Center
07:11PM 42.0406 -84.8447 89° East 538 619 45,000  Level Chicago Center
07:12PM 42.0508 -84.6425 86° East 543 625 45,000  Level Chicago Center
07:13PM 42.0608 -84.4422 86° East 541 623 45,000  Level Chicago Center
07:14PM 42.0700 -84.2403 86° East 542 624 45,000  Level Chicago Center
07:15PM 42.0758 -84.0717 87° East 533 613 45,000  Level Cleveland Center
07:16PM 42.0817 -83.8706 88° East 533 613 45,000  Level Cleveland Center
07:17PM 42.0894 -83.6667 87° East 533 613 45,000  Level Cleveland Center
07:18PM 42.0983 -83.4853 86° East 538 619 45,000  Level Cleveland Center
07:19PM 42.1081 -83.2617 87° East 538 619 45,000  Level Cleveland Center
07:20PM 42.1147 -83.0575 87° East 538 619 45,000  Level Cleveland Center
07:21PM 42.1206 -82.8731 87° East 538 619 45,000  Level Cleveland Center
07:22PM 42.1161 -82.6742 92° East 538 619 45,000  Level Cleveland Center
07:23PM 42.1342 -82.4647 83° East 538 619 45,000  Level Cleveland Center
07:24PM 42.1417 -82.2606 87° East 543 625 45,000  Level Cleveland Center
07:25PM 42.1467 -82.0394 88° East 543 625 45,000  Level Cleveland Center
07:26PM 42.1531 -81.8547 87° East 543 625 45,000  Level Cleveland Center
07:27PM 42.1592 -81.6475 88° East 548 631 45,000  Level Cleveland Center
07:28PM 42.1631 -81.4431 88° East 548 631 45,000  Level Cleveland Center
07:29PM 42.1667 -81.2386 89° East 548 631 45,000  Level Cleveland Center
07:30PM 42.1736 -81.0397 87° East 548 631 45,000  Level Cleveland Center
07:31PM 42.1953 -80.8158 82° East 548 631 45,000  Level Cleveland Center
07:32PM 42.2122 -80.6197 83° East 542 624 45,000  Level Cleveland Center
07:33PM 42.2286 -80.4150 84° East 536 617 45,000  Level Cleveland Center
07:34PM 42.2469 -80.2186 83° East 536 617 45,000  Level Cleveland Center
07:35PM 42.2650 -80.0192 83° East 536 617 45,000  Level Cleveland Center
07:36PM 42.2806 -79.8450 83° East 536 617 45,000  Level Cleveland Center
07:37PM 42.2958 -79.6483 84° East 531 611 45,000  Level Cleveland Center
07:38PM 42.3131 -79.4544 83° East 526 605 45,000  Level Cleveland Center
07:39PM 42.3236 -79.2772 85° East 526 605 45,000  Level Cleveland Center
07:40PM 42.3436 -79.0439 83° East 521 600 45,000  Level Cleveland Center
07:41PM 42.3597 -78.8467 84° East 521 600 45,000  Level Cleveland Center
07:42PM 42.3733 -78.6553 84° East 521 600 45,000  Level Cleveland Center
07:43PM 42.3864 -78.4608 85° East 521 600 45,000  Level Cleveland Center
07:44PM 42.3994 -78.2664 85° East 521 600 45,000  Level Cleveland Center
07:45PM 42.4100 -78.0747 86° East 521 600 45,000  Level Cleveland Center
07:46PM 42.4222 -77.8772 85° East 521 600 45,000  Level Cleveland Center
07:47PM 42.4364 -77.6853 84° East 521 600 45,000  Level Cleveland Center
07:48PM 42.4478 -77.4850 86° East 521 600 45,000  Level Cleveland Center
07:50PM 42.4683 -77.1781 85° East 545 627 45,000  Level Boston Center
07:51PM 42.4806 -76.9789 85° East 534 615 45,000  Level Boston Center
07:52PM 42.4906 -76.7797 86° East 534 615 45,000  Level Boston Center
07:53PM 42.5019 -76.5803 86° East 534 615 45,000  Level Boston Center
07:54PM 42.5033 -76.3072 90° East 528 608 45,000  Level Boston Center
07:55PM 42.4511 -76.1267 111° Southeast 504 580 45,000  Level Boston Center
07:56PM 42.4364 -75.9317 96° East 511 588 45,000  Level Boston Center
07:57PM 42.4256 -75.7311 94° East 516 594 45,000 -180 Level Boston Center
07:58PM 42.4208 -75.5339 92° East 524 603 44,700 -900 Descending Boston Center
07:59PM 42.4342 -75.3378 85° East 519 597 43,300 -1,440 Descending Boston Center
08:00PM 42.4517 -75.1444 83° East 519 597 41,900 -1,980 Descending Boston Center
08:01PM 42.4664 -74.9481 84° East 514 592 39,400 -2,880 Descending Boston Center
08:02PM 42.4789 -74.7514 85° East 519 597 36,100 -3,420 Descending Boston Center
08:03PM 42.4892 -74.5517 86° East 519 597 32,700 -3,240 Descending Boston Center
08:04PM 42.4986 -74.3747 86° East 519 597 29,800 -2,700 Descending Boston Center
08:05PM 42.4858 -74.1350 94° East 525 604 27,300 -2,280 Descending Boston Center
08:06PM 42.4467 -73.9481 106° East 519 597 25,300 -2,040 Descending Boston Center
08:07PM 42.4072 -73.7644 106° East 513 590 23,300 -2,040 Descending Boston Center
08:08PM 42.3675 -73.5894 107° East 495 570 21,300 -1,440 Descending Boston Center
08:10PM 42.2994 -73.2653 106° East 468 539 19,000 -780 Descending Boston Center
08:11PM 42.2317 -73.1047 120° Southeast 452 520 19,000  Level Boston Center
08:12PM 42.1511 -72.9917 134° Southeast 460 529 19,000 -360 Level Boston Center
08:13PM 42.0494 -72.8483 134° Southeast 466 536 18,300 -840 Descending Boston Center
08:14PM 41.9625 -72.7247 133° Southeast 466 536 17,400 -1,140 Descending Boston Center
08:15PM 41.9189 -72.6467 127° Southeast 449 517 16,500 -2,100 Descending Boston Center
08:15PM 41.8711 -72.5517 124° Southeast 450 518 14,800 -2,760 Descending Boston Center
08:16PM 41.8253 -72.4511 121° Southeast 444 511 12,600 -2,760 Descending Boston Center
08:17PM 41.7647 -72.3511 129° Southeast 382 440 10,500 -1,800 Descending Boston Center
08:18PM 41.6792 -72.2844 150° Southeast 328 377 9,000 -1,740 Descending Boston Center
08:19PM 41.6186 -72.2347 148° Southeast 290 334 7,100 -2,100 Descending Boston Center
08:20PM 41.5686 -72.1653 134° Southeast 284 327 5,300 -1,140 Descending Boston Center
08:21PM 41.5161 -72.0964 135° Southeast 253 291 5,000 -600 Descending Boston Center
08:22PM 41.4703 -72.0300 133° Southeast 224 258 4,100 -1,380 Descending Boston Center
08:23PM 41.4242 -71.9833 143° Southeast 210 242 2,300 -1,380 Descending Boston Center
08:24PM 41.3844 -71.9947 192° South 112 129 1,400 -900 Descending Boston Center
08:25PM 41.3597 -72.0197 217° Southwest 116 133 600 3,180 Descending Boston Center
08:26PM 41.3075 -72.0256 185° South 129 148 9,000 3,480 Climbing Boston Center
08:27PM 41.2700 -72.0397 196° South 129 148 9,000  Level Boston Center
08:28PM 41.2347 -72.0536 196° South 129 148 9,000  Level Boston Center
08:29PM 41.2264 -72.0564 194° South 129 148 9,000  Level Boston Center
08:31PM 41.3167 -72.0333 North  Level FlightAware Approximate
08:38PM 41.3301 -72.0451 North  Level Estimated
08:39PM 41.3301 -72.0451 North  Level Estimated
08:40PM 41.3301 -72.0451 North  Level Estimated
08:41PM 41.3301 -72.0451 North  Level Estimated